sensor_id;sensor_type;location;lat;lon;timestamp;P1;durP1;ratioP1;P2;durP2;ratioP2
21671;SDS011;10997;52.242;8.168;2023-11-21T00:03:21;65.25;;;25.55;;
21671;SDS011;10997;52.242;8.168;2023-11-21T00:08:23;57.17;;;24.67;;
21671;SDS011;10997;52.242;8.168;2023-11-21T00:13:24;63.22;;;25.92;;
21671;SDS011;10997;52.242;8.168;2023-11-21T00:18:24;62.35;;;24.88;;
21671;SDS011;10997;52.242;8.168;2023-11-21T00:23:25;59.50;;;23.45;;
21671;SDS011;10997;52.242;8.168;2023-11-21T00:28:25;59.20;;;24.10;;
21671;SDS011;10997;52.242;8.168;2023-11-21T00:33:26;67.18;;;26.17;;
21671;SDS011;10997;52.242;8.168;2023-11-21T00:38:27;61.20;;;25.38;;
21671;SDS011;10997;52.242;8.168;2023-11-21T00:43:28;66.88;;;25.88;;
21671;SDS011;10997;52.242;8.168;2023-11-21T00:48:28;64.93;;;24.85;;
21671;SDS011;10997;52.242;8.168;2023-11-21T00:53:29;70.57;;;26.85;;
21671;SDS011;10997;52.242;8.168;2023-11-21T00:58:29;70.63;;;27.25;;
21671;SDS011;10997;52.242;8.168;2023-11-21T01:03:30;73.32;;;26.55;;
21671;SDS011;10997;52.242;8.168;2023-11-21T01:08:30;74.00;;;26.65;;
21671;SDS011;10997;52.242;8.168;2023-11-21T01:13:31;78.80;;;28.02;;
21671;SDS011;10997;52.242;8.168;2023-11-21T01:18:32;79.20;;;28.85;;
21671;SDS011;10997;52.242;8.168;2023-11-21T01:23:33;83.05;;;27.63;;
21671;SDS011;10997;52.242;8.168;2023-11-21T01:28:33;80.80;;;28.20;;
21671;SDS011;10997;52.242;8.168;2023-11-21T01:33:34;83.68;;;28.23;;
21671;SDS011;10997;52.242;8.168;2023-11-21T01:38:34;101.60;;;29.95;;
21671;SDS011;10997;52.242;8.168;2023-11-21T01:43:35;103.45;;;30.88;;
21671;SDS011;10997;52.242;8.168;2023-11-21T01:48:37;92.72;;;30.48;;
21671;SDS011;10997;52.242;8.168;2023-11-21T01:53:38;101.97;;;31.33;;
21671;SDS011;10997;52.242;8.168;2023-11-21T01:58:40;100.72;;;30.10;;
21671;SDS011;10997;52.242;8.168;2023-11-21T02:03:41;106.68;;;31.05;;
21671;SDS011;10997;52.242;8.168;2023-11-21T02:08:41;100.65;;;29.90;;
21671;SDS011;10997;52.242;8.168;2023-11-21T02:13:44;106.68;;;30.42;;
21671;SDS011;10997;52.242;8.168;2023-11-21T02:18:46;112.60;;;30.55;;
21671;SDS011;10997;52.242;8.168;2023-11-21T02:23:48;108.10;;;31.27;;
21671;SDS011;10997;52.242;8.168;2023-11-21T02:28:49;106.43;;;29.90;;
21671;SDS011;10997;52.242;8.168;2023-11-21T02:33:49;99.97;;;28.05;;
21671;SDS011;10997;52.242;8.168;2023-11-21T02:38:50;98.85;;;27.45;;
21671;SDS011;10997;52.242;8.168;2023-11-21T02:43:50;105.55;;;29.58;;
21671;SDS011;10997;52.242;8.168;2023-11-21T02:48:51;99.63;;;27.52;;
21671;SDS011;10997;52.242;8.168;2023-11-21T02:53:54;98.47;;;27.20;;
21671;SDS011;10997;52.242;8.168;2023-11-21T02:58:58;86.72;;;25.77;;
21671;SDS011;10997;52.242;8.168;2023-11-21T03:04:00;93.95;;;26.08;;
21671;SDS011;10997;52.242;8.168;2023-11-21T03:09:01;80.95;;;26.00;;
21671;SDS011;10997;52.242;8.168;2023-11-21T03:14:02;80.05;;;25.08;;
21671;SDS011;10997;52.242;8.168;2023-11-21T03:19:03;89.22;;;25.65;;
21671;SDS011;10997;52.242;8.168;2023-11-21T03:24:05;87.22;;;27.70;;
21671;SDS011;10997;52.242;8.168;2023-11-21T03:29:07;78.88;;;26.48;;
21671;SDS011;10997;52.242;8.168;2023-11-21T03:34:10;80.97;;;27.52;;
21671;SDS011;10997;52.242;8.168;2023-11-21T03:39:15;92.15;;;26.67;;
21671;SDS011;10997;52.242;8.168;2023-11-21T03:44:15;75.47;;;26.08;;
21671;SDS011;10997;52.242;8.168;2023-11-21T03:49:16;84.20;;;27.73;;
21671;SDS011;10997;52.242;8.168;2023-11-21T03:54:16;89.22;;;26.88;;
21671;SDS011;10997;52.242;8.168;2023-11-21T03:59:17;87.97;;;27.27;;
21671;SDS011;10997;52.242;8.168;2023-11-21T04:04:17;92.82;;;28.20;;
21671;SDS011;10997;52.242;8.168;2023-11-21T04:09:18;98.00;;;30.60;;
21671;SDS011;10997;52.242;8.168;2023-11-21T04:14:19;92.95;;;31.23;;
21671;SDS011;10997;52.242;8.168;2023-11-21T04:19:20;100.97;;;32.20;;
21671;SDS011;10997;52.242;8.168;2023-11-21T04:24:21;103.75;;;33.47;;
21671;SDS011;10997;52.242;8.168;2023-11-21T04:29:21;101.03;;;32.42;;
21671;SDS011;10997;52.242;8.168;2023-11-21T04:34:22;98.93;;;30.88;;
21671;SDS011;10997;52.242;8.168;2023-11-21T04:39:23;98.90;;;31.40;;
21671;SDS011;10997;52.242;8.168;2023-11-21T04:44:24;95.78;;;30.35;;
21671;SDS011;10997;52.242;8.168;2023-11-21T04:49:24;90.07;;;29.77;;
21671;SDS011;10997;52.242;8.168;2023-11-21T04:54:25;90.60;;;31.08;;
21671;SDS011;10997;52.242;8.168;2023-11-21T04:59:25;88.40;;;28.65;;
21671;SDS011;10997;52.242;8.168;2023-11-21T05:04:27;92.22;;;30.48;;
21671;SDS011;10997;52.242;8.168;2023-11-21T05:09:27;100.15;;;30.10;;
21671;SDS011;10997;52.242;8.168;2023-11-21T05:14:31;82.70;;;29.08;;
21671;SDS011;10997;52.242;8.168;2023-11-21T05:19:32;106.40;;;32.58;;
21671;SDS011;10997;52.242;8.168;2023-11-21T05:24:33;101.07;;;32.80;;
21671;SDS011;10997;52.242;8.168;2023-11-21T05:29:33;99.82;;;31.95;;
21671;SDS011;10997;52.242;8.168;2023-11-21T05:34:34;109.72;;;33.50;;
21671;SDS011;10997;52.242;8.168;2023-11-21T05:39:34;97.45;;;31.40;;
21671;SDS011;10997;52.242;8.168;2023-11-21T05:44:36;98.70;;;31.58;;
21671;SDS011;10997;52.242;8.168;2023-11-21T05:49:37;92.32;;;30.13;;
21671;SDS011;10997;52.242;8.168;2023-11-21T05:54:38;90.90;;;29.67;;
21671;SDS011;10997;52.242;8.168;2023-11-21T05:59:38;97.38;;;30.45;;
21671;SDS011;10997;52.242;8.168;2023-11-21T06:04:39;100.68;;;31.35;;
21671;SDS011;10997;52.242;8.168;2023-11-21T06:09:40;101.82;;;32.50;;
21671;SDS011;10997;52.242;8.168;2023-11-21T06:14:40;99.32;;;31.33;;
21671;SDS011;10997;52.242;8.168;2023-11-21T06:19:41;108.38;;;33.15;;
21671;SDS011;10997;52.242;8.168;2023-11-21T06:24:41;105.03;;;33.28;;
21671;SDS011;10997;52.242;8.168;2023-11-21T06:29:42;100.43;;;32.30;;
21671;SDS011;10997;52.242;8.168;2023-11-21T06:34:43;103.32;;;33.83;;
21671;SDS011;10997;52.242;8.168;2023-11-21T06:39:44;106.25;;;32.95;;
21671;SDS011;10997;52.242;8.168;2023-11-21T06:44:44;107.63;;;34.47;;
21671;SDS011;10997;52.242;8.168;2023-11-21T06:49:46;95.28;;;31.88;;
21671;SDS011;10997;52.242;8.168;2023-11-21T06:54:50;95.07;;;32.13;;
21671;SDS011;10997;52.242;8.168;2023-11-21T06:59:50;87.22;;;30.05;;
21671;SDS011;10997;52.242;8.168;2023-11-21T07:04:51;79.47;;;27.98;;
21671;SDS011;10997;52.242;8.168;2023-11-21T07:09:58;76.00;;;27.45;;
21671;SDS011;10997;52.242;8.168;2023-11-21T07:15:03;63.90;;;25.20;;
21671;SDS011;10997;52.242;8.168;2023-11-21T07:20:06;59.55;;;24.55;;
21671;SDS011;10997;52.242;8.168;2023-11-21T07:25:07;53.80;;;22.42;;
21671;SDS011;10997;52.242;8.168;2023-11-21T07:30:09;52.80;;;21.42;;
21671;SDS011;10997;52.242;8.168;2023-11-21T07:35:10;57.25;;;22.48;;
21671;SDS011;10997;52.242;8.168;2023-11-21T07:40:11;51.42;;;21.45;;
21671;SDS011;10997;52.242;8.168;2023-11-21T07:45:12;58.03;;;21.67;;
21671;SDS011;10997;52.242;8.168;2023-11-21T07:50:13;50.15;;;20.80;;
21671;SDS011;10997;52.242;8.168;2023-11-21T07:55:13;49.50;;;20.05;;
21671;SDS011;10997;52.242;8.168;2023-11-21T08:00:14;50.83;;;20.75;;
21671;SDS011;10997;52.242;8.168;2023-11-21T08:05:15;53.42;;;20.88;;
21671;SDS011;10997;52.242;8.168;2023-11-21T08:10:16;47.80;;;20.38;;
21671;SDS011;10997;52.242;8.168;2023-11-21T08:15:17;46.88;;;21.17;;
21671;SDS011;10997;52.242;8.168;2023-11-21T08:20:18;44.00;;;19.88;;
21671;SDS011;10997;52.242;8.168;2023-11-21T08:25:18;45.40;;;19.77;;
21671;SDS011;10997;52.242;8.168;2023-11-21T08:30:20;43.20;;;19.65;;
21671;SDS011;10997;52.242;8.168;2023-11-21T08:35:24;46.08;;;20.05;;
21671;SDS011;10997;52.242;8.168;2023-11-21T08:40:24;47.40;;;19.73;;
21671;SDS011;10997;52.242;8.168;2023-11-21T08:45:25;49.00;;;21.02;;
21671;SDS011;10997;52.242;8.168;2023-11-21T08:50:26;55.05;;;22.27;;
21671;SDS011;10997;52.242;8.168;2023-11-21T08:55:26;56.47;;;22.58;;
21671;SDS011;10997;52.242;8.168;2023-11-21T09:00:27;50.08;;;21.08;;
21671;SDS011;10997;52.242;8.168;2023-11-21T09:05:28;44.63;;;20.10;;
21671;SDS011;10997;52.242;8.168;2023-11-21T09:10:30;35.25;;;16.35;;
21671;SDS011;10997;52.242;8.168;2023-11-21T09:15:30;36.25;;;16.80;;
21671;SDS011;10997;52.242;8.168;2023-11-21T09:20:31;29.25;;;15.02;;
21671;SDS011;10997;52.242;8.168;2023-11-21T09:25:31;36.63;;;17.13;;
21671;SDS011;10997;52.242;8.168;2023-11-21T09:30:32;33.55;;;16.50;;
21671;SDS011;10997;52.242;8.168;2023-11-21T09:35:34;28.55;;;16.27;;
21671;SDS011;10997;52.242;8.168;2023-11-21T09:40:34;33.28;;;14.02;;
21671;SDS011;10997;52.242;8.168;2023-11-21T09:45:35;28.02;;;13.75;;
21671;SDS011;10997;52.242;8.168;2023-11-21T09:50:39;26.75;;;14.35;;
21671;SDS011;10997;52.242;8.168;2023-11-21T09:55:42;22.75;;;12.80;;
21671;SDS011;10997;52.242;8.168;2023-11-21T10:00:45;26.67;;;13.80;;
21671;SDS011;10997;52.242;8.168;2023-11-21T10:05:48;24.58;;;12.75;;
21671;SDS011;10997;52.242;8.168;2023-11-21T10:10:51;25.33;;;12.85;;
21671;SDS011;10997;52.242;8.168;2023-11-21T10:15:54;33.63;;;13.27;;
21671;SDS011;10997;52.242;8.168;2023-11-21T10:20:55;25.33;;;13.50;;
21671;SDS011;10997;52.242;8.168;2023-11-21T10:25:56;22.10;;;13.90;;
21671;SDS011;10997;52.242;8.168;2023-11-21T10:30:59;23.85;;;14.80;;
21671;SDS011;10997;52.242;8.168;2023-11-21T10:35:59;23.63;;;15.30;;
21671;SDS011;10997;52.242;8.168;2023-11-21T10:41:01;22.02;;;14.80;;
21671;SDS011;10997;52.242;8.168;2023-11-21T10:46:04;18.52;;;11.40;;
21671;SDS011;10997;52.242;8.168;2023-11-21T10:51:08;19.58;;;12.60;;
21671;SDS011;10997;52.242;8.168;2023-11-21T10:56:09;23.10;;;14.15;;
21671;SDS011;10997;52.242;8.168;2023-11-21T11:01:18;27.38;;;15.55;;
21671;SDS011;10997;52.242;8.168;2023-11-21T11:06:21;26.23;;;16.35;;
21671;SDS011;10997;52.242;8.168;2023-11-21T11:11:26;27.50;;;16.90;;
21671;SDS011;10997;52.242;8.168;2023-11-21T11:16:26;32.85;;;18.77;;
21671;SDS011;10997;52.242;8.168;2023-11-21T11:31:55;27.30;;;18.35;;
21671;SDS011;10997;52.242;8.168;2023-11-21T11:37:25;29.90;;;17.88;;
21671;SDS011;10997;52.242;8.168;2023-11-21T11:42:27;29.90;;;18.67;;
21671;SDS011;10997;52.242;8.168;2023-11-21T11:47:31;27.65;;;18.38;;
21671;SDS011;10997;52.242;8.168;2023-11-21T11:52:38;26.20;;;17.25;;
21671;SDS011;10997;52.242;8.168;2023-11-21T11:57:41;28.05;;;18.48;;
21671;SDS011;10997;52.242;8.168;2023-11-21T12:02:45;27.58;;;19.05;;
21671;SDS011;10997;52.242;8.168;2023-11-21T12:07:50;25.38;;;18.08;;
21671;SDS011;10997;52.242;8.168;2023-11-21T12:12:57;26.25;;;16.77;;
21671;SDS011;10997;52.242;8.168;2023-11-21T12:17:59;23.90;;;15.37;;
21671;SDS011;10997;52.242;8.168;2023-11-21T12:22:59;20.15;;;13.55;;
21671;SDS011;10997;52.242;8.168;2023-11-21T12:28:01;18.13;;;11.88;;
21671;SDS011;10997;52.242;8.168;2023-11-21T12:33:03;16.65;;;11.45;;
21671;SDS011;10997;52.242;8.168;2023-11-21T12:38:05;17.33;;;12.02;;
21671;SDS011;10997;52.242;8.168;2023-11-21T12:43:06;16.42;;;11.80;;
21671;SDS011;10997;52.242;8.168;2023-11-21T12:48:07;20.08;;;13.52;;
21671;SDS011;10997;52.242;8.168;2023-11-21T12:53:11;17.30;;;12.75;;
21671;SDS011;10997;52.242;8.168;2023-11-21T12:58:12;19.02;;;12.00;;
21671;SDS011;10997;52.242;8.168;2023-11-21T13:03:14;20.75;;;13.32;;
21671;SDS011;10997;52.242;8.168;2023-11-21T13:08:25;20.52;;;12.52;;
21671;SDS011;10997;52.242;8.168;2023-11-21T13:13:28;14.60;;;10.90;;
21671;SDS011;10997;52.242;8.168;2023-11-21T13:18:29;12.40;;;9.48;;
21671;SDS011;10997;52.242;8.168;2023-11-21T13:23:34;12.98;;;9.38;;
21671;SDS011;10997;52.242;8.168;2023-11-21T13:28:36;12.32;;;8.65;;
21671;SDS011;10997;52.242;8.168;2023-11-21T13:33:37;11.48;;;7.75;;
21671;SDS011;10997;52.242;8.168;2023-11-21T13:38:38;14.35;;;12.63;;
21671;SDS011;10997;52.242;8.168;2023-11-21T13:43:42;10.25;;;8.25;;
21671;SDS011;10997;52.242;8.168;2023-11-21T13:48:48;13.07;;;8.40;;
21671;SDS011;10997;52.242;8.168;2023-11-21T13:53:55;10.32;;;8.25;;
21671;SDS011;10997;52.242;8.168;2023-11-21T13:58:56;13.25;;;9.88;;
21671;SDS011;10997;52.242;8.168;2023-11-21T14:03:59;13.65;;;9.05;;
21671;SDS011;10997;52.242;8.168;2023-11-21T14:09:27;11.95;;;9.20;;
21671;SDS011;10997;52.242;8.168;2023-11-21T14:14:43;13.70;;;9.02;;
21671;SDS011;10997;52.242;8.168;2023-11-21T14:19:45;12.10;;;8.88;;
21671;SDS011;10997;52.242;8.168;2023-11-21T14:24:47;12.35;;;8.55;;
21671;SDS011;10997;52.242;8.168;2023-11-21T14:29:50;11.82;;;8.20;;
21671;SDS011;10997;52.242;8.168;2023-11-21T14:34:50;10.15;;;8.00;;
21671;SDS011;10997;52.242;8.168;2023-11-21T14:39:51;13.68;;;8.82;;
21671;SDS011;10997;52.242;8.168;2023-11-21T14:44:52;12.38;;;8.60;;
21671;SDS011;10997;52.242;8.168;2023-11-21T14:49:52;12.52;;;8.70;;
21671;SDS011;10997;52.242;8.168;2023-11-21T14:54:53;11.25;;;8.80;;
21671;SDS011;10997;52.242;8.168;2023-11-21T15:00:14;12.30;;;8.98;;
21671;SDS011;10997;52.242;8.168;2023-11-21T15:05:35;12.35;;;9.07;;
21671;SDS011;10997;52.242;8.168;2023-11-21T15:10:36;14.27;;;9.73;;
21671;SDS011;10997;52.242;8.168;2023-11-21T15:15:59;16.23;;;11.55;;
21671;SDS011;10997;52.242;8.168;2023-11-21T15:21:07;19.90;;;12.07;;
21671;SDS011;10997;52.242;8.168;2023-11-21T15:26:11;16.75;;;12.18;;
21671;SDS011;10997;52.242;8.168;2023-11-21T15:31:12;16.60;;;11.45;;
21671;SDS011;10997;52.242;8.168;2023-11-21T15:36:16;24.92;;;19.77;;
21671;SDS011;10997;52.242;8.168;2023-11-21T15:41:17;25.50;;;20.85;;
21671;SDS011;10997;52.242;8.168;2023-11-21T15:46:17;16.50;;;10.85;;
21671;SDS011;10997;52.242;8.168;2023-11-21T15:51:19;15.10;;;10.52;;
21671;SDS011;10997;52.242;8.168;2023-11-21T15:56:20;15.48;;;11.50;;
21671;SDS011;10997;52.242;8.168;2023-11-21T16:01:20;16.67;;;11.13;;
21671;SDS011;10997;52.242;8.168;2023-11-21T16:06:21;14.98;;;11.13;;
21671;SDS011;10997;52.242;8.168;2023-11-21T16:11:22;15.73;;;11.32;;
21671;SDS011;10997;52.242;8.168;2023-11-21T16:16:23;15.25;;;11.30;;
21671;SDS011;10997;52.242;8.168;2023-11-21T16:21:24;15.45;;;11.70;;
21671;SDS011;10997;52.242;8.168;2023-11-21T16:26:24;26.17;;;15.15;;
21671;SDS011;10997;52.242;8.168;2023-11-21T16:31:25;17.30;;;12.10;;
21671;SDS011;10997;52.242;8.168;2023-11-21T16:36:25;18.40;;;12.18;;
21671;SDS011;10997;52.242;8.168;2023-11-21T16:41:26;18.55;;;13.85;;
21671;SDS011;10997;52.242;8.168;2023-11-21T16:46:28;18.63;;;12.50;;
21671;SDS011;10997;52.242;8.168;2023-11-21T16:51:29;20.50;;;15.98;;
21671;SDS011;10997;52.242;8.168;2023-11-21T16:56:30;17.05;;;12.13;;
21671;SDS011;10997;52.242;8.168;2023-11-21T17:01:31;15.52;;;12.73;;
21671;SDS011;10997;52.242;8.168;2023-11-21T17:06:32;18.90;;;13.10;;
21671;SDS011;10997;52.242;8.168;2023-11-21T17:11:32;16.73;;;13.07;;
21671;SDS011;10997;52.242;8.168;2023-11-21T17:16:33;17.33;;;13.75;;
21671;SDS011;10997;52.242;8.168;2023-11-21T17:21:33;20.17;;;16.40;;
21671;SDS011;10997;52.242;8.168;2023-11-21T17:26:35;18.63;;;14.38;;
21671;SDS011;10997;52.242;8.168;2023-11-21T17:31:36;24.05;;;17.73;;
21671;SDS011;10997;52.242;8.168;2023-11-21T17:36:36;19.55;;;13.80;;
21671;SDS011;10997;52.242;8.168;2023-11-21T17:41:40;20.83;;;15.73;;
21671;SDS011;10997;52.242;8.168;2023-11-21T17:46:41;20.08;;;14.55;;
21671;SDS011;10997;52.242;8.168;2023-11-21T17:51:42;21.73;;;14.95;;
21671;SDS011;10997;52.242;8.168;2023-11-21T17:56:43;19.60;;;14.27;;
21671;SDS011;10997;52.242;8.168;2023-11-21T18:01:43;15.50;;;13.15;;
21671;SDS011;10997;52.242;8.168;2023-11-21T18:06:45;20.88;;;13.65;;
21671;SDS011;10997;52.242;8.168;2023-11-21T18:11:46;21.00;;;15.65;;
21671;SDS011;10997;52.242;8.168;2023-11-21T18:16:46;22.25;;;16.02;;
21671;SDS011;10997;52.242;8.168;2023-11-21T18:21:47;20.17;;;15.23;;
21671;SDS011;10997;52.242;8.168;2023-11-21T18:26:47;19.88;;;15.23;;
21671;SDS011;10997;52.242;8.168;2023-11-21T18:31:49;20.00;;;13.98;;
21671;SDS011;10997;52.242;8.168;2023-11-21T18:36:50;19.85;;;13.23;;
21671;SDS011;10997;52.242;8.168;2023-11-21T18:41:50;24.13;;;14.18;;
21671;SDS011;10997;52.242;8.168;2023-11-21T18:46:53;18.40;;;12.80;;
21671;SDS011;10997;52.242;8.168;2023-11-21T18:51:53;20.42;;;12.75;;
21671;SDS011;10997;52.242;8.168;2023-11-21T18:56:55;15.20;;;11.45;;
21671;SDS011;10997;52.242;8.168;2023-11-21T19:01:55;18.08;;;12.82;;
21671;SDS011;10997;52.242;8.168;2023-11-21T19:06:56;15.05;;;11.80;;
21671;SDS011;10997;52.242;8.168;2023-11-21T19:11:59;18.75;;;12.25;;
21671;SDS011;10997;52.242;8.168;2023-11-21T19:17:00;15.90;;;12.57;;
21671;SDS011;10997;52.242;8.168;2023-11-21T19:22:01;16.00;;;12.45;;
21671;SDS011;10997;52.242;8.168;2023-11-21T19:27:01;15.55;;;12.15;;
21671;SDS011;10997;52.242;8.168;2023-11-21T19:32:02;16.80;;;12.55;;
21671;SDS011;10997;52.242;8.168;2023-11-21T19:37:04;16.23;;;12.30;;
21671;SDS011;10997;52.242;8.168;2023-11-21T19:42:05;17.70;;;12.95;;
21671;SDS011;10997;52.242;8.168;2023-11-21T19:47:06;19.50;;;13.80;;
21671;SDS011;10997;52.242;8.168;2023-11-21T19:52:07;13.30;;;10.88;;
21671;SDS011;10997;52.242;8.168;2023-11-21T19:57:07;14.68;;;10.43;;
21671;SDS011;10997;52.242;8.168;2023-11-21T20:02:11;14.18;;;9.82;;
21671;SDS011;10997;52.242;8.168;2023-11-21T20:07:13;15.98;;;10.73;;
21671;SDS011;10997;52.242;8.168;2023-11-21T20:12:15;14.02;;;10.32;;
21671;SDS011;10997;52.242;8.168;2023-11-21T20:17:15;13.35;;;10.25;;
21671;SDS011;10997;52.242;8.168;2023-11-21T20:22:16;13.50;;;10.43;;
21671;SDS011;10997;52.242;8.168;2023-11-21T20:27:17;24.17;;;14.13;;
21671;SDS011;10997;52.242;8.168;2023-11-21T20:32:18;24.52;;;15.25;;
21671;SDS011;10997;52.242;8.168;2023-11-21T20:37:24;23.65;;;14.23;;
21671;SDS011;10997;52.242;8.168;2023-11-21T20:42:24;43.47;;;20.50;;
21671;SDS011;10997;52.242;8.168;2023-11-21T20:47:25;63.25;;;32.13;;
21671;SDS011;10997;52.242;8.168;2023-11-21T20:52:26;29.60;;;18.10;;
21671;SDS011;10997;52.242;8.168;2023-11-21T20:57:26;32.53;;;19.88;;
21671;SDS011;10997;52.242;8.168;2023-11-21T21:02:28;19.92;;;14.30;;
21671;SDS011;10997;52.242;8.168;2023-11-21T21:07:29;20.35;;;13.57;;
21671;SDS011;10997;52.242;8.168;2023-11-21T21:12:29;21.02;;;15.20;;
21671;SDS011;10997;52.242;8.168;2023-11-21T21:17:30;19.30;;;13.80;;
21671;SDS011;10997;52.242;8.168;2023-11-21T21:22:31;23.63;;;17.33;;
21671;SDS011;10997;52.242;8.168;2023-11-21T21:27:31;18.38;;;14.25;;
21671;SDS011;10997;52.242;8.168;2023-11-21T21:32:32;20.88;;;14.20;;
21671;SDS011;10997;52.242;8.168;2023-11-21T21:37:33;19.83;;;13.80;;
21671;SDS011;10997;52.242;8.168;2023-11-21T21:42:34;18.67;;;13.85;;
21671;SDS011;10997;52.242;8.168;2023-11-21T21:47:35;16.45;;;12.07;;
21671;SDS011;10997;52.242;8.168;2023-11-21T21:52:36;11.88;;;10.02;;
21671;SDS011;10997;52.242;8.168;2023-11-21T21:57:42;17.63;;;10.50;;
21671;SDS011;10997;52.242;8.168;2023-11-21T22:02:43;20.33;;;10.68;;
21671;SDS011;10997;52.242;8.168;2023-11-21T22:07:44;13.00;;;9.18;;
21671;SDS011;10997;52.242;8.168;2023-11-21T22:12:45;15.32;;;8.25;;
21671;SDS011;10997;52.242;8.168;2023-11-21T22:17:45;11.15;;;7.82;;
21671;SDS011;10997;52.242;8.168;2023-11-21T22:22:46;10.27;;;7.70;;
21671;SDS011;10997;52.242;8.168;2023-11-21T22:27:46;10.88;;;8.40;;
21671;SDS011;10997;52.242;8.168;2023-11-21T22:32:47;10.52;;;7.47;;
21671;SDS011;10997;52.242;8.168;2023-11-21T22:37:48;9.77;;;7.22;;
21671;SDS011;10997;52.242;8.168;2023-11-21T22:42:48;15.85;;;9.50;;
21671;SDS011;10997;52.242;8.168;2023-11-21T22:47:49;13.00;;;8.68;;
21671;SDS011;10997;52.242;8.168;2023-11-21T22:52:50;12.27;;;8.30;;
21671;SDS011;10997;52.242;8.168;2023-11-21T22:57:52;12.65;;;8.95;;
21671;SDS011;10997;52.242;8.168;2023-11-21T23:02:53;13.73;;;9.13;;
21671;SDS011;10997;52.242;8.168;2023-11-21T23:07:55;14.68;;;9.38;;
21671;SDS011;10997;52.242;8.168;2023-11-21T23:12:55;12.80;;;9.43;;
21671;SDS011;10997;52.242;8.168;2023-11-21T23:17:56;14.57;;;10.05;;
21671;SDS011;10997;52.242;8.168;2023-11-21T23:22:57;15.35;;;10.02;;
21671;SDS011;10997;52.242;8.168;2023-11-21T23:27:57;13.85;;;9.48;;
21671;SDS011;10997;52.242;8.168;2023-11-21T23:32:59;13.20;;;9.45;;
21671;SDS011;10997;52.242;8.168;2023-11-21T23:37:59;15.48;;;8.80;;
21671;SDS011;10997;52.242;8.168;2023-11-21T23:43:00;13.75;;;8.90;;
21671;SDS011;10997;52.242;8.168;2023-11-21T23:48:00;13.60;;;8.82;;
21671;SDS011;10997;52.242;8.168;2023-11-21T23:53:02;13.05;;;8.98;;
21671;SDS011;10997;52.242;8.168;2023-11-21T23:58:03;16.67;;;9.90;;
